sensor_id;sensor_type;location;lat;lon;timestamp;P1;durP1;ratioP1;P2;durP2;ratioP2
22837;SDS011;11585;51.450;-0.240;2023-09-30T08:02:58;17.60;;;2.45;;
22837;SDS011;11585;51.450;-0.240;2023-09-30T08:05:25;14.95;;;2.63;;
22837;SDS011;11585;51.450;-0.240;2023-09-30T08:07:51;17.08;;;2.30;;
22837;SDS011;11585;51.450;-0.240;2023-09-30T08:10:17;17.95;;;2.72;;
22837;SDS011;11585;51.450;-0.240;2023-09-30T08:12:43;12.85;;;2.92;;
22837;SDS011;11585;51.450;-0.240;2023-09-30T08:15:13;16.00;;;2.95;;
22837;SDS011;11585;51.450;-0.240;2023-09-30T08:17:39;17.35;;;2.97;;
22837;SDS011;11585;51.450;-0.240;2023-09-30T08:20:05;12.20;;;2.58;;
22837;SDS011;11585;51.450;-0.240;2023-09-30T08:22:31;25.42;;;2.88;;
22837;SDS011;11585;51.450;-0.240;2023-09-30T08:24:57;15.75;;;2.60;;
22837;SDS011;11585;51.450;-0.240;2023-09-30T08:27:24;20.77;;;2.22;;
22837;SDS011;11585;51.450;-0.240;2023-09-30T08:29:51;12.18;;;2.65;;
22837;SDS011;11585;51.450;-0.240;2023-09-30T08:32:17;21.58;;;3.45;;
22837;SDS011;11585;51.450;-0.240;2023-09-30T08:34:42;14.32;;;2.80;;
22837;SDS011;11585;51.450;-0.240;2023-09-30T08:37:09;12.65;;;2.70;;
22837;SDS011;11585;51.450;-0.240;2023-09-30T08:39:38;14.90;;;3.13;;
22837;SDS011;11585;51.450;-0.240;2023-09-30T08:42:08;20.27;;;4.68;;
22837;SDS011;11585;51.450;-0.240;2023-09-30T08:44:39;19.13;;;3.47;;
22837;SDS011;11585;51.450;-0.240;2023-09-30T08:47:07;17.50;;;2.75;;
22837;SDS011;11585;51.450;-0.240;2023-09-30T08:49:37;18.48;;;2.72;;
22837;SDS011;11585;51.450;-0.240;2023-09-30T08:52:06;29.05;;;7.40;;
22837;SDS011;11585;51.450;-0.240;2023-09-30T08:57:01;16.75;;;3.35;;
22837;SDS011;11585;51.450;-0.240;2023-09-30T08:59:29;14.00;;;2.60;;
22837;SDS011;11585;51.450;-0.240;2023-09-30T09:01:56;20.35;;;2.88;;
22837;SDS011;11585;51.450;-0.240;2023-09-30T09:04:23;22.50;;;2.92;;
22837;SDS011;11585;51.450;-0.240;2023-09-30T09:06:49;19.30;;;3.75;;
22837;SDS011;11585;51.450;-0.240;2023-09-30T09:11:59;20.45;;;3.13;;
22837;SDS011;11585;51.450;-0.240;2023-09-30T09:14:40;16.13;;;2.30;;
22837;SDS011;11585;51.450;-0.240;2023-09-30T09:17:08;12.32;;;2.40;;
22837;SDS011;11585;51.450;-0.240;2023-09-30T09:22:37;20.45;;;3.20;;
22837;SDS011;11585;51.450;-0.240;2023-09-30T09:25:06;22.88;;;3.03;;
22837;SDS011;11585;51.450;-0.240;2023-09-30T09:27:35;12.75;;;3.05;;
22837;SDS011;11585;51.450;-0.240;2023-09-30T09:33:06;17.23;;;2.40;;
22837;SDS011;11585;51.450;-0.240;2023-09-30T09:38:00;15.77;;;2.60;;
22837;SDS011;11585;51.450;-0.240;2023-09-30T09:40:27;24.55;;;3.08;;
22837;SDS011;11585;51.450;-0.240;2023-09-30T09:42:58;19.08;;;4.10;;
22837;SDS011;11585;51.450;-0.240;2023-09-30T09:45:25;14.77;;;2.10;;
22837;SDS011;11585;51.450;-0.240;2023-09-30T09:47:55;14.73;;;2.97;;
22837;SDS011;11585;51.450;-0.240;2023-09-30T11:32:04;10.57;;;3.03;;
22837;SDS011;11585;51.450;-0.240;2023-09-30T11:34:33;9.38;;;2.25;;
22837;SDS011;11585;51.450;-0.240;2023-09-30T11:37:01;13.57;;;2.00;;
22837;SDS011;11585;51.450;-0.240;2023-09-30T11:39:27;16.52;;;4.55;;
22837;SDS011;11585;51.450;-0.240;2023-09-30T11:41:54;12.13;;;2.40;;
22837;SDS011;11585;51.450;-0.240;2023-09-30T11:44:22;10.75;;;2.25;;
22837;SDS011;11585;51.450;-0.240;2023-09-30T11:49:23;13.70;;;2.00;;
22837;SDS011;11585;51.450;-0.240;2023-09-30T11:51:49;10.23;;;2.80;;
22837;SDS011;11585;51.450;-0.240;2023-09-30T11:54:16;6.00;;;1.58;;
22837;SDS011;11585;51.450;-0.240;2023-09-30T11:56:41;13.15;;;2.83;;
22837;SDS011;11585;51.450;-0.240;2023-09-30T11:59:08;11.73;;;2.25;;
22837;SDS011;11585;51.450;-0.240;2023-09-30T12:01:37;9.82;;;2.20;;
22837;SDS011;11585;51.450;-0.240;2023-09-30T12:04:03;11.05;;;2.50;;
22837;SDS011;11585;51.450;-0.240;2023-09-30T12:06:29;13.88;;;2.78;;
22837;SDS011;11585;51.450;-0.240;2023-09-30T12:08:54;22.13;;;2.67;;
22837;SDS011;11585;51.450;-0.240;2023-09-30T12:11:20;16.48;;;2.92;;
22837;SDS011;11585;51.450;-0.240;2023-09-30T12:13:48;10.70;;;2.63;;
22837;SDS011;11585;51.450;-0.240;2023-09-30T12:16:15;9.73;;;2.10;;
22837;SDS011;11585;51.450;-0.240;2023-09-30T12:18:44;10.20;;;2.10;;
22837;SDS011;11585;51.450;-0.240;2023-09-30T12:21:10;17.05;;;3.95;;
22837;SDS011;11585;51.450;-0.240;2023-09-30T12:23:38;9.70;;;1.80;;
22837;SDS011;11585;51.450;-0.240;2023-09-30T12:26:05;16.80;;;1.80;;
22837;SDS011;11585;51.450;-0.240;2023-09-30T12:28:34;13.25;;;2.40;;
22837;SDS011;11585;51.450;-0.240;2023-09-30T12:31:00;14.38;;;2.42;;
22837;SDS011;11585;51.450;-0.240;2023-09-30T12:33:30;10.65;;;2.47;;
22837;SDS011;11585;51.450;-0.240;2023-09-30T12:38:24;9.82;;;1.80;;
22837;SDS011;11585;51.450;-0.240;2023-09-30T12:40:51;8.68;;;2.22;;
22837;SDS011;11585;51.450;-0.240;2023-09-30T12:43:18;9.30;;;2.15;;
22837;SDS011;11585;51.450;-0.240;2023-09-30T12:45:44;14.48;;;3.42;;
22837;SDS011;11585;51.450;-0.240;2023-09-30T12:48:11;16.77;;;3.83;;
22837;SDS011;11585;51.450;-0.240;2023-09-30T12:50:36;10.63;;;2.30;;
22837;SDS011;11585;51.450;-0.240;2023-09-30T18:43:49;19.50;;;7.88;;
22837;SDS011;11585;51.450;-0.240;2023-09-30T18:46:15;19.50;;;7.00;;
22837;SDS011;11585;51.450;-0.240;2023-09-30T18:48:41;15.68;;;4.03;;
22837;SDS011;11585;51.450;-0.240;2023-09-30T18:51:07;17.35;;;3.55;;
22837;SDS011;11585;51.450;-0.240;2023-09-30T18:53:36;25.92;;;5.63;;
22837;SDS011;11585;51.450;-0.240;2023-09-30T18:56:03;25.65;;;5.78;;
22837;SDS011;11585;51.450;-0.240;2023-09-30T18:58:31;22.20;;;4.10;;
22837;SDS011;11585;51.450;-0.240;2023-09-30T19:00:57;20.20;;;4.57;;
22837;SDS011;11585;51.450;-0.240;2023-09-30T19:03:23;19.15;;;4.72;;
22837;SDS011;11585;51.450;-0.240;2023-09-30T19:05:51;15.18;;;3.95;;
22837;SDS011;11585;51.450;-0.240;2023-09-30T19:08:19;26.52;;;5.20;;
22837;SDS011;11585;51.450;-0.240;2023-09-30T19:10:46;39.22;;;8.63;;
22837;SDS011;11585;51.450;-0.240;2023-09-30T19:13:12;20.05;;;5.63;;
22837;SDS011;11585;51.450;-0.240;2023-09-30T19:15:38;30.05;;;9.30;;
22837;SDS011;11585;51.450;-0.240;2023-09-30T19:18:04;19.02;;;5.75;;
22837;SDS011;11585;51.450;-0.240;2023-09-30T19:20:30;16.83;;;5.72;;
22837;SDS011;11585;51.450;-0.240;2023-09-30T19:22:56;20.83;;;5.25;;
22837;SDS011;11585;51.450;-0.240;2023-09-30T19:25:22;29.92;;;8.25;;
22837;SDS011;11585;51.450;-0.240;2023-09-30T19:27:48;25.90;;;7.63;;
22837;SDS011;11585;51.450;-0.240;2023-09-30T19:30:17;19.65;;;5.57;;
22837;SDS011;11585;51.450;-0.240;2023-09-30T19:32:43;25.90;;;5.75;;
22837;SDS011;11585;51.450;-0.240;2023-09-30T19:35:08;25.90;;;8.07;;
22837;SDS011;11585;51.450;-0.240;2023-09-30T19:37:34;25.50;;;7.13;;
22837;SDS011;11585;51.450;-0.240;2023-09-30T19:40:01;22.30;;;5.45;;
22837;SDS011;11585;51.450;-0.240;2023-09-30T19:42:28;15.98;;;5.43;;
22837;SDS011;11585;51.450;-0.240;2023-09-30T19:44:54;20.63;;;4.82;;
22837;SDS011;11585;51.450;-0.240;2023-09-30T19:47:19;16.48;;;4.15;;
22837;SDS011;11585;51.450;-0.240;2023-09-30T19:49:45;14.43;;;3.88;;
22837;SDS011;11585;51.450;-0.240;2023-09-30T19:52:13;18.23;;;3.92;;
22837;SDS011;11585;51.450;-0.240;2023-09-30T19:54:39;13.25;;;4.18;;
22837;SDS011;11585;51.450;-0.240;2023-09-30T19:57:07;19.23;;;4.90;;
22837;SDS011;11585;51.450;-0.240;2023-09-30T19:59:36;15.95;;;4.07;;
22837;SDS011;11585;51.450;-0.240;2023-09-30T20:02:04;20.83;;;4.97;;
22837;SDS011;11585;51.450;-0.240;2023-09-30T20:04:31;16.50;;;4.82;;
22837;SDS011;11585;51.450;-0.240;2023-09-30T20:06:57;17.83;;;4.40;;
22837;SDS011;11585;51.450;-0.240;2023-09-30T20:11:58;18.35;;;4.50;;
22837;SDS011;11585;51.450;-0.240;2023-09-30T20:14:27;18.50;;;4.40;;
22837;SDS011;11585;51.450;-0.240;2023-09-30T20:16:54;19.60;;;4.90;;
22837;SDS011;11585;51.450;-0.240;2023-09-30T20:19:20;19.20;;;4.70;;
22837;SDS011;11585;51.450;-0.240;2023-09-30T20:21:46;15.75;;;4.97;;
22837;SDS011;11585;51.450;-0.240;2023-09-30T20:24:11;19.35;;;4.30;;
22837;SDS011;11585;51.450;-0.240;2023-09-30T20:26:37;17.27;;;4.03;;
22837;SDS011;11585;51.450;-0.240;2023-09-30T20:29:03;20.38;;;4.72;;
22837;SDS011;11585;51.450;-0.240;2023-09-30T20:31:33;20.10;;;4.60;;
22837;SDS011;11585;51.450;-0.240;2023-09-30T20:34:03;16.35;;;4.70;;
22837;SDS011;11585;51.450;-0.240;2023-09-30T20:36:30;15.20;;;4.53;;
22837;SDS011;11585;51.450;-0.240;2023-09-30T20:38:55;19.63;;;4.15;;
22837;SDS011;11585;51.450;-0.240;2023-09-30T20:41:21;15.00;;;4.43;;
22837;SDS011;11585;51.450;-0.240;2023-09-30T20:43:49;21.83;;;5.25;;
22837;SDS011;11585;51.450;-0.240;2023-09-30T20:46:15;17.95;;;4.68;;
22837;SDS011;11585;51.450;-0.240;2023-09-30T20:48:41;20.30;;;5.63;;
22837;SDS011;11585;51.450;-0.240;2023-09-30T20:51:07;20.90;;;3.95;;
22837;SDS011;11585;51.450;-0.240;2023-09-30T20:53:34;15.25;;;4.45;;
22837;SDS011;11585;51.450;-0.240;2023-09-30T20:56:00;21.92;;;4.95;;
22837;SDS011;11585;51.450;-0.240;2023-09-30T20:58:26;17.45;;;4.53;;
22837;SDS011;11585;51.450;-0.240;2023-09-30T21:00:54;21.67;;;4.63;;
22837;SDS011;11585;51.450;-0.240;2023-09-30T21:03:22;9.70;;;3.45;;
22837;SDS011;11585;51.450;-0.240;2023-09-30T21:05:48;19.33;;;3.90;;
22837;SDS011;11585;51.450;-0.240;2023-09-30T21:08:14;17.73;;;3.90;;
22837;SDS011;11585;51.450;-0.240;2023-09-30T21:10:44;23.08;;;4.28;;
22837;SDS011;11585;51.450;-0.240;2023-09-30T21:13:10;22.08;;;4.45;;
22837;SDS011;11585;51.450;-0.240;2023-09-30T21:15:35;21.75;;;4.57;;
22837;SDS011;11585;51.450;-0.240;2023-09-30T21:18:01;18.63;;;4.03;;
22837;SDS011;11585;51.450;-0.240;2023-09-30T21:20:27;13.48;;;4.35;;
22837;SDS011;11585;51.450;-0.240;2023-09-30T21:22:53;19.05;;;4.55;;
22837;SDS011;11585;51.450;-0.240;2023-09-30T21:25:18;17.42;;;4.38;;
22837;SDS011;11585;51.450;-0.240;2023-09-30T21:27:44;26.98;;;4.60;;
22837;SDS011;11585;51.450;-0.240;2023-09-30T21:30:12;12.02;;;3.88;;
22837;SDS011;11585;51.450;-0.240;2023-09-30T21:32:40;19.50;;;6.20;;
22837;SDS011;11585;51.450;-0.240;2023-09-30T21:35:06;19.52;;;4.68;;
22837;SDS011;11585;51.450;-0.240;2023-09-30T21:37:32;17.42;;;4.80;;
22837;SDS011;11585;51.450;-0.240;2023-09-30T21:40:00;17.45;;;3.90;;
